createdAt,value
2018-12-10T00:00:46.937Z,4.80
2018-12-10T00:03:22.156Z,4.90
2018-12-10T00:05:51.561Z,4.90
2018-12-10T00:08:20.416Z,4.90
2018-12-10T00:10:50.734Z,4.90
2018-12-10T00:13:20.313Z,4.90
2018-12-10T00:15:50.535Z,4.90
2018-12-10T00:18:18.908Z,4.90
2018-12-10T00:20:47.228Z,5.00
2018-12-10T00:23:15.544Z,5.00
2018-12-10T00:25:43.936Z,5.00
2018-12-10T00:28:16.324Z,5.00
2018-12-10T00:30:44.648Z,5.00
2018-12-10T00:33:13.036Z,5.00
2018-12-10T00:35:41.334Z,5.00
2018-12-10T00:38:09.566Z,5.00
2018-12-10T00:40:37.836Z,5.00
2018-12-10T00:43:06.125Z,5.00
2018-12-10T00:45:34.474Z,5.00
2018-12-10T00:48:02.995Z,5.00
2018-12-10T00:50:31.442Z,4.90
2018-12-10T00:52:59.735Z,4.90
2018-12-10T00:55:28.003Z,4.80
2018-12-10T00:57:56.314Z,4.80
2018-12-10T01:00:24.595Z,4.80
2018-12-10T01:02:52.871Z,4.80
2018-12-10T01:05:21.275Z,4.80
2018-12-10T01:07:49.598Z,4.80
2018-12-10T01:10:18.043Z,4.80
2018-12-10T01:12:46.337Z,4.80
2018-12-10T01:15:14.683Z,4.90
2018-12-10T01:17:43.593Z,4.90
2018-12-10T01:20:11.991Z,5.00
2018-12-10T01:22:40.314Z,5.00
2018-12-10T01:25:08.603Z,5.00
2018-12-10T01:27:36.888Z,5.10
2018-12-10T01:30:07.195Z,5.10
2018-12-10T01:32:35.535Z,5.10
2018-12-10T01:35:04.051Z,5.10
2018-12-10T01:37:32.626Z,5.10
2018-12-10T01:40:01.015Z,5.10
2018-12-10T01:42:29.452Z,5.10
2018-12-10T01:44:57.984Z,5.00
2018-12-10T01:47:26.286Z,5.00
2018-12-10T01:49:54.661Z,5.00
2018-12-10T01:52:23.204Z,5.00
2018-12-10T01:54:51.494Z,4.90
2018-12-10T01:57:19.887Z,4.90
2018-12-10T01:59:48.203Z,4.80
2018-12-10T02:02:16.483Z,4.70
2018-12-10T02:04:44.758Z,4.60
2018-12-10T02:07:13.047Z,4.60
2018-12-10T02:09:41.465Z,4.60
2018-12-10T02:12:11.678Z,4.60
2018-12-10T02:14:40.014Z,4.60
2018-12-10T02:17:08.688Z,4.50
2018-12-10T02:19:37.704Z,4.50
2018-12-10T02:22:06.104Z,4.50
2018-12-10T02:24:34.427Z,4.60
2018-12-10T02:27:02.807Z,4.60
2018-12-10T02:29:31.085Z,4.60
2018-12-10T02:31:59.392Z,4.60
2018-12-10T02:34:27.643Z,4.50
2018-12-10T02:36:56.261Z,4.50
2018-12-10T02:39:24.557Z,4.50
2018-12-10T02:41:52.868Z,4.50
2018-12-10T02:44:21.224Z,4.50
2018-12-10T02:46:49.591Z,4.60
2018-12-10T02:49:17.834Z,4.60
2018-12-10T02:51:46.233Z,4.60
2018-12-10T02:54:14.676Z,4.50
2018-12-10T02:56:42.959Z,4.50
2018-12-10T02:59:11.275Z,4.40
2018-12-10T03:01:39.564Z,4.40
2018-12-10T03:04:07.843Z,4.30
2018-12-10T03:06:36.196Z,4.30
2018-12-10T03:09:06.076Z,4.20
2018-12-10T03:11:34.454Z,4.20
2018-12-10T03:14:02.854Z,4.10
2018-12-10T03:16:31.161Z,4.10
2018-12-10T03:18:59.456Z,4.10
2018-12-10T03:21:27.835Z,4.20
2018-12-10T03:23:56.220Z,4.20
2018-12-10T03:26:24.523Z,4.20
2018-12-10T03:28:52.760Z,4.20
2018-12-10T03:31:21.030Z,4.20
2018-12-10T03:33:49.340Z,4.10
2018-12-10T03:36:18.534Z,4.20
2018-12-10T03:38:46.869Z,4.20
2018-12-10T03:41:15.155Z,4.20
2018-12-10T03:43:43.526Z,4.20
2018-12-10T03:46:11.847Z,4.30
2018-12-10T03:48:40.100Z,4.30
2018-12-10T03:51:08.333Z,4.30
2018-12-10T03:53:36.598Z,4.40
2018-12-10T03:56:04.893Z,4.40
2018-12-10T03:58:33.175Z,4.40
2018-12-10T04:01:01.416Z,4.30
2018-12-10T04:03:29.695Z,4.30
2018-12-10T04:05:57.985Z,4.30
2018-12-10T04:08:26.288Z,4.20
2018-12-10T04:10:54.589Z,4.20
2018-12-10T04:13:22.851Z,4.20
2018-12-10T04:15:51.165Z,4.20
2018-12-10T04:18:19.745Z,4.20
2018-12-10T04:20:48.096Z,4.20
2018-12-10T04:23:16.470Z,4.20
2018-12-10T04:25:44.747Z,4.20
2018-12-10T04:28:15.787Z,4.20
2018-12-10T04:30:44.064Z,4.30
2018-12-10T04:33:12.339Z,4.20
2018-12-10T04:35:40.626Z,4.20
2018-12-10T04:38:08.920Z,4.20
2018-12-10T04:40:37.195Z,4.10
2018-12-10T04:43:05.459Z,4.20
2018-12-10T04:45:33.775Z,4.10
2018-12-10T04:48:02.088Z,4.10
2018-12-10T04:50:30.390Z,4.10
2018-12-10T04:52:58.635Z,4.10
2018-12-10T04:55:26.964Z,4.10
2018-12-10T04:57:55.298Z,4.00
2018-12-10T05:00:24.727Z,4.00
2018-12-10T05:02:53.093Z,4.00
2018-12-10T05:05:21.387Z,4.00
2018-12-10T05:07:49.727Z,4.00
2018-12-10T05:10:17.983Z,4.00
2018-12-10T05:12:46.241Z,4.00
2018-12-10T05:15:14.714Z,4.00
2018-12-10T05:17:43.032Z,3.90
2018-12-10T05:20:11.414Z,3.90
2018-12-10T05:22:39.711Z,3.80
2018-12-10T05:25:08.113Z,3.90
2018-12-10T05:27:36.432Z,3.90
2018-12-10T05:30:05.091Z,3.90
2018-12-10T05:32:33.349Z,3.90
2018-12-10T05:35:01.650Z,3.90
2018-12-10T05:37:29.964Z,3.90
2018-12-10T05:39:58.292Z,3.90
2018-12-10T05:42:27.245Z,3.90
2018-12-10T05:44:55.544Z,3.80
2018-12-10T05:47:23.823Z,3.80
2018-12-10T05:49:52.102Z,3.80
2018-12-10T05:52:20.375Z,3.80
2018-12-10T05:54:48.695Z,3.80
2018-12-10T05:57:16.999Z,3.90
2018-12-10T05:59:45.266Z,3.80
2018-12-10T06:02:13.557Z,3.80
2018-12-10T06:04:41.810Z,3.80
2018-12-10T06:07:10.109Z,3.70
2018-12-10T06:09:38.388Z,3.70
2018-12-10T06:12:06.707Z,3.70
2018-12-10T06:14:35.070Z,3.60
2018-12-10T06:17:03.864Z,3.60
2018-12-10T06:19:32.146Z,3.50
2018-12-10T06:22:00.423Z,3.50
2018-12-10T06:24:28.846Z,3.50
2018-12-10T06:26:57.207Z,3.50
2018-12-10T06:29:25.528Z,3.50
2018-12-10T06:31:53.895Z,3.50
2018-12-10T06:34:22.224Z,3.50
2018-12-10T06:36:50.522Z,3.50
2018-12-10T06:39:18.905Z,3.50
2018-12-10T06:41:47.172Z,3.50
2018-12-10T06:44:15.467Z,3.50
2018-12-10T06:46:43.788Z,3.40
2018-12-10T06:49:12.050Z,3.50
2018-12-10T06:51:40.435Z,3.40
2018-12-10T06:54:08.695Z,3.50
2018-12-10T06:56:37.066Z,3.50
2018-12-10T06:59:05.350Z,3.50
2018-12-10T07:01:33.592Z,3.50
2018-12-10T07:04:01.880Z,3.50
2018-12-10T07:06:30.176Z,3.60
2018-12-10T07:11:33.055Z,3.60
2018-12-10T07:14:01.337Z,3.50
2018-12-10T07:16:29.613Z,3.40
2018-12-10T07:18:57.930Z,3.50
2018-12-10T07:21:26.180Z,3.40
2018-12-10T07:23:54.509Z,3.50
2018-12-10T07:26:22.885Z,3.40
2018-12-10T07:28:51.244Z,3.50
2018-12-10T07:31:19.475Z,3.50
2018-12-10T07:33:47.836Z,3.60
2018-12-10T07:36:16.156Z,3.70
2018-12-10T07:38:44.470Z,3.70
2018-12-10T07:41:12.775Z,3.70
2018-12-10T07:43:41.048Z,3.70
2018-12-10T07:46:09.345Z,3.80
2018-12-10T07:48:37.713Z,3.80
2018-12-10T07:51:06.092Z,3.80
2018-12-10T07:53:34.426Z,3.80
2018-12-10T07:56:02.680Z,3.80
2018-12-10T07:58:30.973Z,3.80
2018-12-10T08:00:59.251Z,3.80
2018-12-10T08:03:27.526Z,3.80
2018-12-10T08:05:55.823Z,3.90
2018-12-10T08:08:24.122Z,4.00
2018-12-10T08:10:52.495Z,4.00
2018-12-10T08:13:20.775Z,4.10
2018-12-10T08:15:49.052Z,4.10
2018-12-10T08:18:17.351Z,4.20
2018-12-10T08:20:45.707Z,4.30
2018-12-10T08:23:14.151Z,4.10
2018-12-10T08:25:42.621Z,4.00
2018-12-10T08:28:11.015Z,3.90
2018-12-10T08:30:39.307Z,3.80
2018-12-10T08:33:07.566Z,3.70
2018-12-10T08:35:40.838Z,3.70
2018-12-10T08:38:06.112Z,3.70
2018-12-10T08:40:34.369Z,3.70
2018-12-10T08:43:02.662Z,3.80
2018-12-10T08:45:31.077Z,4.00
2018-12-10T08:47:59.346Z,4.30
2018-12-10T08:50:27.643Z,4.60
2018-12-10T08:52:55.963Z,4.80
2018-12-10T08:55:24.279Z,5.00
2018-12-10T08:57:52.557Z,5.30
2018-12-10T09:00:21.239Z,5.50
2018-12-10T09:02:49.522Z,5.50
2018-12-10T09:05:17.863Z,5.30
2018-12-10T09:07:46.170Z,5.00
2018-12-10T09:10:14.447Z,4.80
2018-12-10T09:12:46.990Z,4.60
2018-12-10T09:15:13.034Z,4.50
2018-12-10T09:17:41.333Z,4.40
2018-12-10T09:20:09.787Z,4.60
2018-12-10T09:22:38.087Z,5.00
2018-12-10T09:25:06.835Z,5.40
2018-12-10T09:27:35.153Z,5.70
2018-12-10T09:30:03.670Z,5.50
2018-12-10T09:32:31.943Z,5.50
2018-12-10T09:35:00.271Z,5.30
2018-12-10T09:37:28.585Z,5.20
2018-12-10T09:39:57.011Z,5.10
2018-12-10T09:42:25.300Z,5.00
2018-12-10T09:44:55.179Z,5.00
2018-12-10T09:47:23.712Z,4.90
2018-12-10T09:49:52.032Z,4.70
2018-12-10T09:52:20.350Z,4.70
2018-12-10T09:54:48.654Z,4.80
2018-12-10T09:57:16.973Z,4.80
2018-12-10T09:59:45.362Z,4.90
2018-12-10T10:02:13.653Z,5.20
2018-12-10T10:04:42.079Z,5.30
2018-12-10T10:07:10.385Z,5.60
2018-12-10T10:09:38.688Z,5.60
2018-12-10T10:12:07.156Z,5.50
2018-12-10T10:14:35.484Z,5.60
2018-12-10T10:17:03.952Z,5.60
2018-12-10T10:19:32.224Z,5.70
2018-12-10T10:22:00.600Z,5.70
2018-12-10T10:24:28.884Z,5.60
2018-12-10T10:26:57.155Z,5.60
2018-12-10T10:29:25.508Z,5.50
2018-12-10T10:31:53.935Z,5.20
2018-12-10T10:34:22.250Z,5.10
2018-12-10T10:36:50.686Z,5.00
2018-12-10T10:39:21.335Z,5.00
2018-12-10T10:41:49.635Z,5.00
2018-12-10T10:44:17.912Z,5.10
2018-12-10T10:46:46.372Z,5.20
2018-12-10T10:49:14.672Z,5.20
2018-12-10T10:51:43.944Z,5.20
2018-12-10T10:54:12.443Z,5.20
2018-12-10T10:56:40.787Z,5.20
2018-12-10T10:59:09.045Z,5.20
2018-12-10T11:01:42.664Z,5.20
2018-12-10T11:04:11.095Z,5.30
2018-12-10T11:06:39.475Z,5.30
2018-12-10T11:09:14.975Z,5.30
2018-12-10T11:11:38.187Z,5.40
2018-12-10T11:14:06.492Z,5.50
2018-12-10T11:16:35.375Z,5.50
2018-12-10T11:19:03.767Z,5.60
2018-12-10T11:21:32.064Z,5.60
2018-12-10T11:24:00.368Z,5.70
2018-12-10T11:26:28.709Z,5.70
2018-12-10T11:28:57.042Z,5.80
2018-12-10T11:31:25.318Z,5.90
2018-12-10T11:33:53.764Z,5.90
2018-12-10T11:36:22.067Z,5.80
2018-12-10T11:38:50.373Z,5.80
2018-12-10T11:41:18.614Z,5.70
2018-12-10T11:43:46.908Z,5.70
2018-12-10T11:46:15.773Z,5.70
2018-12-10T11:48:44.178Z,5.80
2018-12-10T11:51:12.431Z,5.80
2018-12-10T11:53:40.722Z,5.90
2018-12-10T11:56:09.100Z,5.90
2018-12-10T11:58:37.361Z,6.00
2018-12-10T12:01:05.624Z,6.00
2018-12-10T12:03:33.934Z,5.90
2018-12-10T12:06:02.729Z,5.90
2018-12-10T12:08:31.693Z,6.10
2018-12-10T12:11:00.698Z,6.20
2018-12-10T12:13:29.741Z,6.20
2018-12-10T12:15:58.631Z,6.00
2018-12-10T12:18:27.649Z,5.90
2018-12-10T12:20:56.628Z,5.90
2018-12-10T12:23:24.998Z,5.80
2018-12-10T12:25:53.392Z,5.70
2018-12-10T12:28:21.620Z,5.60
2018-12-10T12:30:50.031Z,5.60
2018-12-10T12:33:18.358Z,5.60
2018-12-10T12:35:46.701Z,5.50
2018-12-10T12:38:15.075Z,5.50
2018-12-10T12:40:43.392Z,5.30
2018-12-10T12:43:15.879Z,5.20
2018-12-10T12:45:42.259Z,4.90
2018-12-10T12:48:10.510Z,4.50
2018-12-10T12:50:38.807Z,4.30
2018-12-10T12:53:07.118Z,4.10
2018-12-10T12:55:35.440Z,3.70
2018-12-10T12:58:03.925Z,3.50
2018-12-10T13:00:32.341Z,3.40
2018-12-10T13:03:00.678Z,3.20
2018-12-10T13:05:29.031Z,3.20
2018-12-10T13:07:57.410Z,3.20
2018-12-10T13:10:25.685Z,3.20
2018-12-10T13:12:54.003Z,3.30
2018-12-10T13:15:22.279Z,3.30
2018-12-10T13:17:50.595Z,3.40
2018-12-10T13:20:19.048Z,3.50
2018-12-10T13:22:48.089Z,3.90
2018-12-10T13:25:16.494Z,4.30
2018-12-10T13:27:44.934Z,4.80
2018-12-10T13:30:13.385Z,5.00
2018-12-10T13:32:41.772Z,4.90
2018-12-10T13:35:10.026Z,4.80
2018-12-10T13:37:38.309Z,4.70
2018-12-10T13:40:06.844Z,4.60
2018-12-10T13:42:35.197Z,4.60
2018-12-10T13:45:03.623Z,4.60
2018-12-10T13:47:31.979Z,4.60
2018-12-10T13:50:00.253Z,4.50
2018-12-10T13:52:28.650Z,4.50
2018-12-10T13:54:57.484Z,4.50
2018-12-10T13:57:26.928Z,4.50
2018-12-10T13:59:55.980Z,4.50
2018-12-10T14:02:24.382Z,4.50
2018-12-10T14:04:57.194Z,4.60
2018-12-10T14:07:25.694Z,4.60
2018-12-10T14:09:54.070Z,4.60
2018-12-10T14:12:22.488Z,4.50
2018-12-10T14:14:50.947Z,4.50
2018-12-10T14:17:19.464Z,4.60
2018-12-10T14:19:48.086Z,4.70
2018-12-10T14:22:16.712Z,4.80
2018-12-10T14:24:45.644Z,4.90
2018-12-10T14:27:15.204Z,5.00
2018-12-10T14:29:43.852Z,5.00
2018-12-10T14:32:12.498Z,5.00
2018-12-10T14:34:40.817Z,5.00
2018-12-10T14:37:10.041Z,4.90
2018-12-10T14:39:38.429Z,4.80
2018-12-10T14:42:15.442Z,4.70
2018-12-10T14:44:43.931Z,4.60
2018-12-10T14:47:12.323Z,4.50
2018-12-10T14:49:40.763Z,4.40
2018-12-10T14:52:09.127Z,4.30
2018-12-10T14:54:37.448Z,4.30
2018-12-10T14:57:05.766Z,4.20
2018-12-10T14:59:34.080Z,4.20
2018-12-10T15:02:03.951Z,4.20
2018-12-10T15:04:32.301Z,4.20
2018-12-10T15:07:03.139Z,4.20
2018-12-10T15:09:32.167Z,4.20
2018-12-10T15:12:01.102Z,4.10
2018-12-10T15:14:29.429Z,4.10
2018-12-10T15:16:57.841Z,4.10
2018-12-10T15:19:26.486Z,4.10
2018-12-10T15:21:54.807Z,4.10
2018-12-10T15:24:23.633Z,4.10
2018-12-10T15:26:52.103Z,4.10
2018-12-10T15:29:20.451Z,4.10
2018-12-10T15:31:48.766Z,4.00
2018-12-10T15:34:17.088Z,4.00
2018-12-10T15:36:45.705Z,4.00
2018-12-10T15:39:14.199Z,3.90
2018-12-10T15:41:42.548Z,3.90
2018-12-10T15:44:10.832Z,3.80
2018-12-10T15:46:39.237Z,3.80
2018-12-10T15:49:07.627Z,3.80
2018-12-10T15:51:35.958Z,3.80
2018-12-10T15:54:04.388Z,3.80
2018-12-10T15:56:32.719Z,3.80
2018-12-10T15:59:01.304Z,3.80
2018-12-10T16:01:29.609Z,3.80
2018-12-10T16:03:57.874Z,3.80
2018-12-10T16:06:26.356Z,3.80
2018-12-10T16:08:54.784Z,3.90
2018-12-10T16:11:23.070Z,3.90
2018-12-10T16:13:51.456Z,3.90
2018-12-10T16:16:19.770Z,3.90
2018-12-10T16:18:48.097Z,4.00
2018-12-10T16:21:16.603Z,4.00
2018-12-10T16:23:45.041Z,4.00
2018-12-10T16:26:13.386Z,4.10
2018-12-10T16:28:41.793Z,4.10
2018-12-10T16:31:10.340Z,4.10
2018-12-10T16:33:38.819Z,4.20
2018-12-10T16:36:07.511Z,4.20
2018-12-10T16:38:36.036Z,4.20
2018-12-10T16:41:04.694Z,4.30
2018-12-10T16:43:33.080Z,4.30
2018-12-10T16:46:01.512Z,4.30
2018-12-10T16:48:31.751Z,4.40
2018-12-10T16:51:01.044Z,4.40
2018-12-10T16:53:29.814Z,4.40
2018-12-10T16:55:58.188Z,4.40
2018-12-10T16:58:26.807Z,4.40
2018-12-10T17:00:55.698Z,4.40
2018-12-10T17:03:24.075Z,4.40
2018-12-10T17:05:58.865Z,4.30
2018-12-10T17:08:27.559Z,4.30
2018-12-10T17:10:55.906Z,4.30
2018-12-10T17:13:24.259Z,4.30
2018-12-10T17:15:52.682Z,4.20
2018-12-10T17:18:22.070Z,4.20
2018-12-10T17:20:52.641Z,4.30
2018-12-10T17:23:21.167Z,4.30
2018-12-10T17:25:49.588Z,4.30
2018-12-10T17:28:18.476Z,4.30
2018-12-10T17:30:46.895Z,4.30
2018-12-10T17:33:16.355Z,4.30
2018-12-10T17:35:49.901Z,4.30
2018-12-10T17:38:19.563Z,4.30
2018-12-10T17:40:50.447Z,4.30
2018-12-10T17:43:26.367Z,4.30
2018-12-10T17:45:57.623Z,4.30
2018-12-10T17:48:29.927Z,4.30
2018-12-10T17:51:02.487Z,4.30
2018-12-10T17:53:31.007Z,4.30
2018-12-10T17:55:59.508Z,4.30
2018-12-10T17:58:28.893Z,4.30
2018-12-10T18:00:57.412Z,4.30
2018-12-10T18:03:26.725Z,4.30
2018-12-10T18:06:02.710Z,4.30
2018-12-10T18:08:31.182Z,4.20
2018-12-10T18:11:00.763Z,4.20
2018-12-10T18:13:29.227Z,4.20
2018-12-10T18:15:57.701Z,4.30
2018-12-10T18:18:26.973Z,4.30
2018-12-10T18:20:56.636Z,4.30
2018-12-10T18:26:06.284Z,4.30
2018-12-10T18:28:34.612Z,4.20
2018-12-10T18:31:02.919Z,4.20
2018-12-10T18:33:31.916Z,4.20
2018-12-10T18:36:00.360Z,4.20
2018-12-10T18:38:29.016Z,4.20
2018-12-10T18:40:57.334Z,4.20
2018-12-10T18:43:25.752Z,4.20
2018-12-10T18:45:54.285Z,4.20
2018-12-10T18:48:23.386Z,4.20
2018-12-10T18:50:52.536Z,4.30
2018-12-10T18:53:20.862Z,4.30
2018-12-10T18:55:49.165Z,4.30
2018-12-10T18:58:17.531Z,4.30
2018-12-10T19:00:45.767Z,4.30
2018-12-10T19:03:14.106Z,4.30
2018-12-10T19:05:43.172Z,4.30
2018-12-10T19:08:11.537Z,4.30
2018-12-10T19:10:39.834Z,4.30
2018-12-10T19:13:08.892Z,4.30
2018-12-10T19:15:37.648Z,4.30
2018-12-10T19:18:06.148Z,4.20
2018-12-10T19:20:34.913Z,4.20
2018-12-10T19:23:03.593Z,4.30
2018-12-10T19:25:32.075Z,4.30
2018-12-10T19:28:02.132Z,4.30
2018-12-10T19:30:30.457Z,4.30
2018-12-10T19:32:59.895Z,4.30
2018-12-10T19:35:28.203Z,4.30
2018-12-10T19:37:56.526Z,4.30
2018-12-10T19:40:24.903Z,4.30
2018-12-10T19:42:53.193Z,4.40
2018-12-10T19:45:21.507Z,4.40
2018-12-10T19:47:49.837Z,4.50
2018-12-10T19:50:18.813Z,4.50
2018-12-10T19:52:47.261Z,4.50
2018-12-10T19:55:15.628Z,4.50
2018-12-10T19:57:43.917Z,4.50
2018-12-10T20:00:12.395Z,4.50
2018-12-10T20:02:40.742Z,4.50
2018-12-10T20:05:09.284Z,4.50
2018-12-10T20:07:38.147Z,4.50
2018-12-10T20:10:08.313Z,4.50
2018-12-10T20:12:36.936Z,4.50
2018-12-10T20:15:07.224Z,4.50
2018-12-10T20:17:36.255Z,4.50
2018-12-10T20:20:06.230Z,4.40
2018-12-10T20:22:34.531Z,4.40
2018-12-10T20:25:02.932Z,4.40
2018-12-10T20:27:31.425Z,4.40
2018-12-10T20:29:59.893Z,4.40
2018-12-10T20:32:28.353Z,4.30
2018-12-10T20:34:56.824Z,4.30
2018-12-10T20:37:25.341Z,4.30
2018-12-10T20:39:53.662Z,4.30
2018-12-10T20:42:21.984Z,4.30
2018-12-10T20:44:50.304Z,4.20
2018-12-10T20:47:18.706Z,4.20
2018-12-10T20:49:47.219Z,4.20
2018-12-10T20:52:15.495Z,4.10
2018-12-10T20:54:43.938Z,4.10
2018-12-10T20:57:12.686Z,4.00
2018-12-10T20:59:41.506Z,4.00
2018-12-10T21:02:09.805Z,4.00
2018-12-10T21:04:38.206Z,4.00
2018-12-10T21:07:06.718Z,3.90
2018-12-10T21:09:35.372Z,3.90
2018-12-10T21:12:03.805Z,3.90
2018-12-10T21:14:32.095Z,3.90
2018-12-10T21:17:00.463Z,3.90
2018-12-10T21:19:28.743Z,3.90
2018-12-10T21:21:57.074Z,3.90
2018-12-10T21:24:25.593Z,4.00
2018-12-10T21:26:53.916Z,4.00
2018-12-10T21:29:22.220Z,4.00
2018-12-10T21:31:50.520Z,3.90
2018-12-10T21:34:18.893Z,3.90
2018-12-10T21:36:47.419Z,3.90
2018-12-10T21:39:15.697Z,3.80
2018-12-10T21:41:44.643Z,3.80
2018-12-10T21:44:13.193Z,3.70
2018-12-10T21:46:41.613Z,3.70
2018-12-10T21:49:09.982Z,3.70
2018-12-10T21:51:40.818Z,3.70
2018-12-10T21:54:09.141Z,3.70
2018-12-10T21:56:37.463Z,3.60
2018-12-10T21:59:05.802Z,3.60
2018-12-10T22:01:34.078Z,3.60
2018-12-10T22:04:02.371Z,3.60
2018-12-10T22:06:35.539Z,3.60
2018-12-10T22:09:05.615Z,3.50
2018-12-10T22:11:33.932Z,3.60
2018-12-10T22:14:02.223Z,3.60
2018-12-10T22:16:30.683Z,3.50
2018-12-10T22:18:59.002Z,3.50
2018-12-10T22:21:27.412Z,3.50
2018-12-10T22:23:55.678Z,3.60
2018-12-10T22:26:24.110Z,3.60
2018-12-10T22:28:52.479Z,3.70
2018-12-10T22:31:20.765Z,3.70
2018-12-10T22:33:49.250Z,3.60
2018-12-10T22:36:17.524Z,3.60
2018-12-10T22:38:45.769Z,3.60
2018-12-10T22:41:14.058Z,3.50
2018-12-10T22:43:42.342Z,3.50
2018-12-10T22:46:10.643Z,3.50
2018-12-10T22:48:38.962Z,3.40
2018-12-10T22:51:07.308Z,3.40
2018-12-10T22:53:35.583Z,3.40
2018-12-10T22:56:03.957Z,3.40
2018-12-10T22:58:32.264Z,3.40
2018-12-10T23:01:00.795Z,3.40
2018-12-10T23:03:29.071Z,3.30
2018-12-10T23:05:57.384Z,3.30
2018-12-10T23:08:25.999Z,3.30
2018-12-10T23:10:54.317Z,3.30
2018-12-10T23:13:22.587Z,3.30
2018-12-10T23:15:51.487Z,3.40
2018-12-10T23:18:19.813Z,3.40
2018-12-10T23:20:48.180Z,3.40
2018-12-10T23:23:16.494Z,3.40
2018-12-10T23:25:44.777Z,3.30
2018-12-10T23:28:13.056Z,3.30
2018-12-10T23:30:41.498Z,3.40
2018-12-10T23:33:09.787Z,3.50
2018-12-10T23:35:38.238Z,3.50
2018-12-10T23:38:06.525Z,3.50
2018-12-10T23:40:35.039Z,3.50
2018-12-10T23:43:08.735Z,3.50
2018-12-10T23:45:37.095Z,3.50
2018-12-10T23:48:05.395Z,3.40
2018-12-10T23:50:33.678Z,3.40
2018-12-10T23:53:02.018Z,3.40
2018-12-10T23:55:30.436Z,3.40
2018-12-10T23:57:58.748Z,3.40
